Time;durP1;ratioP1;P1;durP2;ratioP2;P2;SDS_P1;SDS_P2;PMS_P1;PMS_P2;Temp;Humidity;BMP_temperature;BMP_pressure;BME280_temperature;BME280_humidity;BME280_pressure;Samples;Min_cycle;Max_cycle;Signal;HPM_P1;HPM_P2
2023/09/05 00:02:18;;;;;;;8.88;7.40;;;;;;;17.12;72.18;96420.25;5112940;28;20051;-67
2023/09/05 00:04:47;;;;;;;8.80;7.80;;;;;;;17.13;71.91;96427.22;5113417;28;20481;-65
2023/09/05 00:07:16;;;;;;;8.48;7.68;;;;;;;17.12;72.40;96428.19;5116531;28;20421;-68
2023/09/05 00:09:44;;;;;;;10.23;6.80;;;;;;;17.05;72.47;96430.38;5116677;28;20052;-65
2023/09/05 00:12:11;;;;;;;8.30;7.45;;;;;;;17.01;72.26;96426.22;5116598;28;20048;-65
2023/09/05 00:14:38;;;;;;;9.80;7.15;;;;;;;17.03;72.68;96426.97;5116487;28;20549;-65
2023/09/05 00:17:05;;;;;;;7.78;7.07;;;;;;;17.05;72.76;96425.09;5116479;28;20040;-69
2023/09/05 00:19:32;;;;;;;9.93;7.68;;;;;;;17.05;72.66;96425.09;5116413;28;20051;-63
2023/09/05 00:21:59;;;;;;;10.80;7.78;;;;;;;17.10;72.46;96418.66;5116154;28;20047;-69
2023/09/05 00:24:31;;;;;;;8.85;7.45;;;;;;;17.08;72.73;96417.91;5116269;28;20085;-68
2023/09/05 00:26:59;;;;;;;9.05;7.47;;;;;;;17.09;72.71;96409.03;5116364;28;20047;-68
2023/09/05 00:29:27;;;;;;;9.32;7.38;;;;;;;17.07;72.60;96413.59;5116341;28;20047;-65
2023/09/05 00:31:58;;;;;;;11.45;7.32;;;;;;;17.10;72.59;96408.94;5116011;28;20047;-63
2023/09/05 00:34:26;;;;;;;9.90;7.15;;;;;;;17.07;72.90;96416.22;5116344;28;20043;-66
2023/09/05 00:36:53;;;;;;;7.97;7.22;;;;;;;17.05;72.79;96403.09;5116067;28;20044;-69
2023/09/05 00:39:20;;;;;;;9.98;7.03;;;;;;;17.03;72.92;96397.91;5115935;28;20043;-62
2023/09/05 00:41:49;;;;;;;11.38;7.68;;;;;;;17.02;73.07;96405.94;5115970;28;20054;-65
2023/09/05 00:44:17;;;;;;;10.38;7.38;;;;;;;17.02;72.98;96396.22;5116040;28;20048;-66
2023/09/05 00:46:47;;;;;;;7.30;6.57;;;;;;;17.05;73.04;96392.53;5115960;28;20048;-65
2023/09/05 00:49:15;;;;;;;10.45;7.25;;;;;;;17.01;73.11;96406.88;5116107;28;20058;-69
2023/09/05 00:51:44;;;;;;;10.48;7.60;;;;;;;16.94;73.76;96401.16;5115792;28;20047;-65
2023/09/05 00:54:12;;;;;;;8.93;7.72;;;;;;;16.95;73.65;96394.09;5115731;28;20101;-72
2023/09/05 00:56:39;;;;;;;8.25;7.03;;;;;;;16.98;73.59;96399.16;5115766;28;20408;-65
2023/09/05 00:59:08;;;;;;;8.75;7.15;;;;;;;16.94;73.70;96393.22;5115744;28;20044;-72
2023/09/05 01:01:35;;;;;;;10.88;7.40;;;;;;;16.96;74.05;96382.56;5115484;28;20062;-69
2023/09/05 01:04:02;;;;;;;7.90;7.20;;;;;;;16.94;74.49;96385.28;5115420;28;20495;-68
2023/09/05 01:06:41;;;;;;;10.65;7.15;;;;;;;16.99;74.33;96380.56;5115472;28;20040;-69
2023/09/05 01:09:19;;;;;;;10.38;6.82;;;;;;;16.98;74.08;96383.31;5115309;28;20054;-64
2023/09/05 01:11:48;;;;;;;11.35;8.15;;;;;;;16.96;74.33;96383.41;5115648;28;20047;-71
2023/09/05 01:14:17;;;;;;;12.00;7.82;;;;;;;16.98;74.55;96389.41;5115302;28;20130;-67
2023/09/05 01:16:45;;;;;;;10.85;7.20;;;;;;;16.97;74.78;96389.53;5115273;28;20044;-70
2023/09/05 01:19:14;;;;;;;14.13;8.23;;;;;;;16.97;74.93;96387.75;5115354;28;20398;-66
2023/09/05 01:21:49;;;;;;;13.27;7.75;;;;;;;16.98;75.07;96389.41;5115175;28;20531;-68
2023/09/05 01:24:19;;;;;;;9.57;8.00;;;;;;;16.96;75.51;96378.13;5115091;28;20051;-64
2023/09/05 01:26:47;;;;;;;9.77;8.40;;;;;;;16.92;75.63;96390.69;5115099;28;20496;-65
2023/09/05 01:29:18;;;;;;;8.68;7.78;;;;;;;16.95;75.79;96387.00;5115076;28;20523;-66
2023/09/05 01:31:46;;;;;;;8.85;7.90;;;;;;;16.93;76.00;96402.97;5115002;28;20051;-65
2023/09/05 01:34:13;;;;;;;11.70;8.35;;;;;;;16.92;75.66;96401.25;5114973;28;20075;-69
2023/09/05 01:36:40;;;;;;;15.13;7.95;;;;;;;16.95;75.98;96399.38;5114835;28;20078;-64
2023/09/05 01:39:07;;;;;;;11.07;7.80;;;;;;;17.00;75.74;96408.66;5114935;28;20122;-68
2023/09/05 01:41:35;;;;;;;9.98;7.70;;;;;;;17.02;75.32;96403.28;5114724;28;20051;-64
2023/09/05 01:44:02;;;;;;;11.35;7.88;;;;;;;17.13;75.01;96407.91;5114792;28;20441;-71
2023/09/05 01:46:29;;;;;;;10.90;7.90;;;;;;;17.15;74.44;96406.84;5114594;28;20136;-69
2023/09/05 01:48:56;;;;;;;8.90;7.68;;;;;;;17.21;74.40;96402.94;5114508;28;20094;-65
2023/09/05 01:51:23;;;;;;;9.25;7.88;;;;;;;17.27;74.08;96405.16;5114686;28;20071;-68
2023/09/05 01:53:50;;;;;;;8.98;7.90;;;;;;;17.32;73.95;96409.28;5114825;28;20055;-65
2023/09/05 01:56:17;;;;;;;12.30;6.82;;;;;;;17.39;73.41;96406.13;5114551;28;20101;-66
2023/09/05 01:58:45;;;;;;;9.75;7.15;;;;;;;17.40;73.03;96412.28;5114459;28;20404;-65
2023/09/05 02:01:12;;;;;;;7.43;6.72;;;;;;;17.42;72.76;96413.00;5114449;28;20044;-67
2023/09/05 02:03:40;;;;;;;8.20;7.40;;;;;;;17.42;72.78;96411.22;5114435;28;20081;-73
2023/09/05 02:06:07;;;;;;;14.02;7.05;;;;;;;17.43;72.49;96418.19;5114501;28;20096;-68
2023/09/05 02:08:34;;;;;;;10.68;7.35;;;;;;;17.42;72.23;96413.84;5114233;28;20131;-69
2023/09/05 02:11:01;;;;;;;10.35;7.20;;;;;;;17.42;72.47;96415.66;5114463;28;20401;-65
2023/09/05 02:13:29;;;;;;;11.38;6.95;;;;;;;17.39;72.22;96422.00;5114187;28;20117;-67
2023/09/05 02:15:58;;;;;;;8.10;6.65;;;;;;;17.40;72.74;96428.97;5114198;28;20048;-70
2023/09/05 02:18:25;;;;;;;11.48;7.25;;;;;;;17.37;72.57;96431.00;5114264;28;20047;-65
2023/09/05 02:20:57;;;;;;;11.43;6.40;;;;;;;17.34;73.09;96425.91;5114104;28;20066;-64
2023/09/05 02:23:24;;;;;;;8.32;7.00;;;;;;;17.36;73.34;96426.63;5114068;28;20054;-67
2023/09/05 02:25:57;;;;;;;10.48;7.75;;;;;;;17.39;72.80;96427.28;5113992;28;20079;-70
2023/09/05 02:28:24;;;;;;;8.27;6.75;;;;;;;17.40;73.20;96428.13;5113532;28;20052;-67
2023/09/05 02:30:51;;;;;;;9.90;7.20;;;;;;;17.40;73.25;96431.63;5114170;28;20102;-67
2023/09/05 02:33:20;;;;;;;9.50;7.95;;;;;;;17.35;72.95;96423.16;5113870;28;20086;-69
2023/09/05 02:35:48;;;;;;;10.50;7.32;;;;;;;17.38;73.42;96422.09;5113749;28;20048;-66
2023/09/05 02:38:15;;;;;;;10.98;6.88;;;;;;;17.43;73.34;96430.56;5113739;28;20062;-69
2023/09/05 02:40:45;;;;;;;8.00;6.93;;;;;;;17.36;73.43;96421.34;5113691;28;20481;-70
2023/09/05 02:43:13;;;;;;;12.20;7.97;;;;;;;17.35;73.38;96433.75;5113611;28;20047;-67
2023/09/05 02:45:40;;;;;;;14.18;7.68;;;;;;;17.36;73.48;96432.78;5113789;28;20050;-63
2023/09/05 02:48:07;;;;;;;7.90;7.05;;;;;;;17.31;73.47;96437.53;5113607;28;20528;-67
2023/09/05 02:50:36;;;;;;;8.35;7.55;;;;;;;17.32;73.81;96431.28;5113537;28;20048;-64
2023/09/05 02:53:03;;;;;;;9.65;7.55;;;;;;;17.24;73.99;96426.50;5113644;28;20553;-69
2023/09/05 02:55:33;;;;;;;9.40;7.63;;;;;;;17.20;74.09;96426.81;5113645;28;20082;-63
2023/09/05 02:58:00;;;;;;;9.82;6.90;;;;;;;17.20;74.25;96417.09;5113695;28;20466;-65
2023/09/05 03:00:27;;;;;;;11.45;7.25;;;;;;;17.17;74.49;96422.59;5113633;28;20098;-66
2023/09/05 03:02:56;;;;;;;8.00;7.22;;;;;;;17.17;74.46;96414.66;5113362;28;20083;-65
2023/09/05 03:05:23;;;;;;;12.15;7.22;;;;;;;17.17;74.46;96426.09;5113513;28;20048;-67
2023/09/05 03:07:51;;;;;;;8.65;6.70;;;;;;;17.13;74.94;96427.22;5113228;28;20138;-68
2023/09/05 03:10:18;;;;;;;10.95;7.22;;;;;;;17.07;75.04;96435.59;5113470;28;20123;-66
2023/09/05 03:12:45;;;;;;;9.90;6.90;;;;;;;17.07;74.89;96435.59;5113381;28;20050;-64
2023/09/05 03:15:20;;;;;;;10.07;6.88;;;;;;;17.04;75.23;96433.13;5113614;28;20043;-65
2023/09/05 03:17:47;;;;;;;8.38;7.20;;;;;;;16.97;75.88;96427.38;5113348;28;20130;-67
2023/09/05 03:20:15;;;;;;;8.13;7.28;;;;;;;16.97;76.28;96426.50;5113416;28;20047;-65
2023/09/05 03:22:42;;;;;;;9.52;6.82;;;;;;;16.97;76.38;96434.44;5113433;28;20058;-69
2023/09/05 03:25:11;;;;;;;8.45;7.50;;;;;;;16.91;76.95;96433.91;5113315;28;20393;-69
2023/09/05 03:27:39;;;;;;;9.30;7.63;;;;;;;16.88;77.38;96428.81;5113253;28;20553;-68
2023/09/05 03:30:07;;;;;;;12.68;7.57;;;;;;;16.90;77.24;96434.88;5113244;28;20477;-63
2023/09/05 03:32:34;;;;;;;11.93;7.60;;;;;;;16.90;77.26;96426.09;5113444;28;20054;-63
2023/09/05 03:35:01;;;;;;;9.65;8.30;;;;;;;16.85;77.54;96425.53;5113379;28;20055;-71
2023/09/05 03:37:29;;;;;;;11.05;7.90;;;;;;;16.84;77.86;96426.47;5113147;28;20048;-67
2023/09/05 03:39:56;;;;;;;12.07;7.38;;;;;;;16.80;77.91;96431.97;5114093;28;20043;-68
2023/09/05 03:42:24;;;;;;;8.23;7.53;;;;;;;16.81;78.10;96443.38;5116926;28;20445;-63
2023/09/05 03:44:51;;;;;;;8.73;7.82;;;;;;;16.79;78.16;96439.97;5117221;28;20052;-65
2023/09/05 03:47:19;;;;;;;9.00;7.57;;;;;;;16.78;77.97;96449.72;5117206;28;20066;-70
2023/09/05 03:49:46;;;;;;;9.80;7.32;;;;;;;16.82;77.85;96439.78;5116949;28;20066;-67
2023/09/05 03:52:13;;;;;;;9.85;7.47;;;;;;;16.80;78.49;96449.63;5116976;28;20079;-69
2023/09/05 03:54:40;;;;;;;8.70;6.80;;;;;;;16.77;77.76;96445.34;5116952;28;20043;-66
2023/09/05 03:57:07;;;;;;;6.70;6.10;;;;;;;16.80;77.80;96437.25;5116963;28;20058;-66
2023/09/05 03:59:35;;;;;;;6.38;5.78;;;;;;;16.78;77.04;96444.44;5116766;28;20048;-69
2023/09/05 04:02:03;;;;;;;6.57;5.60;;;;;;;16.81;76.55;96448.66;5116717;28;20156;-68
2023/09/05 04:04:30;;;;;;;5.60;5.10;;;;;;;16.85;76.60;96442.22;5116799;28;20105;-64
2023/09/05 04:06:57;;;;;;;9.52;5.20;;;;;;;16.90;75.86;96444.56;5116706;28;20047;-67
2023/09/05 04:09:24;;;;;;;8.82;4.80;;;;;;;16.96;76.40;96444.19;5116768;28;20086;-70
2023/09/05 04:11:51;;;;;;;8.02;4.60;;;;;;;16.95;75.89;96429.28;5116753;28;20047;-69
2023/09/05 04:14:18;;;;;;;4.35;3.95;;;;;;;16.97;75.66;96431.78;5116680;28;20044;-63
2023/09/05 04:16:47;;;;;;;5.13;3.13;;;;;;;16.97;75.24;96431.78;5116420;28;20071;-67
2023/09/05 04:19:14;;;;;;;4.15;3.85;;;;;;;16.94;75.57;96432.84;5116526;28;20048;-66
2023/09/05 04:21:41;;;;;;;3.55;3.25;;;;;;;16.98;75.17;96430.88;5116511;28;20048;-66
2023/09/05 04:24:08;;;;;;;3.33;2.45;;;;;;;17.03;75.07;96429.63;5116432;28;20048;-66
2023/09/05 04:26:37;;;;;;;4.63;2.40;;;;;;;17.10;74.67;96434.53;5116386;28;20044;-70
2023/09/05 04:29:05;;;;;;;5.28;2.85;;;;;;;17.15;74.32;96438.56;5116249;28;20127;-70
2023/09/05 04:31:32;;;;;;;2.80;2.30;;;;;;;17.18;73.69;96437.50;5116275;28;20422;-68
2023/09/05 04:34:01;;;;;;;3.22;2.85;;;;;;;17.28;73.22;96446.50;5116103;28;20488;-69
2023/09/05 04:36:28;;;;;;;3.17;2.88;;;;;;;17.31;73.18;96440.19;5116032;28;20096;-63
2023/09/05 04:38:55;;;;;;;3.88;2.50;;;;;;;17.38;73.25;96445.88;5115956;28;20488;-63
2023/09/05 04:41:22;;;;;;;4.75;2.70;;;;;;;17.42;72.66;96445.59;5115838;28;20093;-68
2023/09/05 04:43:49;;;;;;;5.03;3.38;;;;;;;17.45;72.90;96447.16;5115779;28;20055;-65
2023/09/05 04:46:16;;;;;;;3.00;2.80;;;;;;;17.48;72.88;96446.97;5115909;28;20138;-72
2023/09/05 04:48:43;;;;;;;5.93;3.35;;;;;;;17.55;72.77;96453.53;5115995;28;20131;-64
2023/09/05 04:51:12;;;;;;;4.03;3.50;;;;;;;17.59;72.45;96456.81;5115705;28;20043;-65
2023/09/05 04:53:39;;;;;;;5.63;3.78;;;;;;;17.58;72.76;96452.47;5115703;28;20505;-69
2023/09/05 04:56:06;;;;;;;5.60;3.95;;;;;;;17.56;72.26;96449.09;5115687;27;20051;-72
2023/09/05 04:58:33;;;;;;;5.28;4.40;;;;;;;17.48;72.87;96449.59;5115643;28;20054;-68
2023/09/05 05:01:03;;;;;;;5.38;4.05;;;;;;;17.51;73.27;96446.75;5115672;28;20050;-69
2023/09/05 05:03:30;;;;;;;6.55;4.13;;;;;;;17.51;72.81;96451.19;5115559;28;20584;-67
2023/09/05 05:05:57;;;;;;;7.05;5.10;;;;;;;17.46;73.08;96443.56;5115627;28;20054;-69
2023/09/05 05:08:26;;;;;;;6.57;5.85;;;;;;;17.48;72.68;96446.97;5115305;28;20123;-65
2023/09/05 05:10:53;;;;;;;5.80;5.25;;;;;;;17.54;72.54;96448.34;5115401;28;20485;-69
2023/09/05 05:13:20;;;;;;;6.75;5.65;;;;;;;17.61;72.42;96443.50;5115360;28;20130;-68
2023/09/05 05:15:48;;;;;;;7.20;6.05;;;;;;;17.65;72.82;96435.25;5115325;28;20480;-65
2023/09/05 05:18:15;;;;;;;7.78;6.28;;;;;;;17.68;72.69;96432.41;5115616;28;20401;-67
2023/09/05 05:20:42;;;;;;;8.88;6.72;;;;;;;17.63;72.27;96433.63;5115252;28;20166;-66
2023/09/05 05:23:09;;;;;;;9.18;6.50;;;;;;;17.64;72.28;96445.94;5115078;28;20143;-68
2023/09/05 05:25:38;;;;;;;10.63;7.07;;;;;;;17.55;72.35;96426.25;5115147;28;20044;-69
2023/09/05 05:28:06;;;;;;;10.02;6.28;;;;;;;17.49;72.68;96430.13;5115021;28;20047;-69
2023/09/05 05:30:36;;;;;;;9.30;6.43;;;;;;;17.52;72.82;96429.94;5115024;28;20126;-65
2023/09/05 05:33:04;;;;;;;8.88;6.60;;;;;;;17.52;73.19;96434.41;5115003;28;20046;-66
2023/09/05 05:35:31;;;;;;;8.85;6.80;;;;;;;17.59;72.97;96440.94;5115100;28;20488;-68
2023/09/05 05:37:58;;;;;;;8.10;7.18;;;;;;;17.70;71.90;96442.00;5115009;28;20044;-67
2023/09/05 05:40:25;;;;;;;8.90;7.47;;;;;;;17.82;71.98;96451.72;5114806;28;20089;-67
2023/09/05 05:42:54;;;;;;;11.20;7.50;;;;;;;17.85;71.71;96442.75;5114699;28;20093;-64
2023/09/05 05:45:21;;;;;;;8.55;6.30;;;;;;;17.87;71.58;96436.41;5114749;28;20075;-64
2023/09/05 05:47:49;;;;;;;10.43;6.97;;;;;;;17.79;71.10;96447.50;5114828;28;20043;-67
2023/09/05 05:50:16;;;;;;;7.07;6.38;;;;;;;17.74;71.30;96440.84;5114920;28;20126;-68
2023/09/05 05:52:45;;;;;;;7.00;6.30;;;;;;;17.73;71.57;96447.91;5114722;28;20048;-68
2023/09/05 05:55:12;;;;;;;7.53;6.38;;;;;;;17.76;71.57;96460.94;5114572;28;20123;-71
2023/09/05 05:57:39;;;;;;;8.27;6.00;;;;;;;17.75;71.26;96453.97;5114444;28;20480;-62
2023/09/05 06:00:09;;;;;;;9.52;6.15;;;;;;;17.75;71.11;96461.03;5114623;28;20112;-67
2023/09/05 06:02:36;;;;;;;7.77;6.63;;;;;;;17.74;71.40;96462.00;5113700;28;20047;-69
2023/09/05 06:05:03;;;;;;;7.43;6.70;;;;;;;17.71;71.35;96465.72;5114384;28;20112;-66
2023/09/05 06:07:30;;;;;;;9.15;6.97;;;;;;;17.73;71.88;96462.97;5114199;28;20404;-69
2023/09/05 06:09:57;;;;;;;7.15;6.38;;;;;;;17.71;72.34;96478.09;5114304;28;20039;-69
2023/09/05 06:12:24;;;;;;;8.00;6.82;;;;;;;17.80;71.68;96477.47;5114236;28;20108;-72
2023/09/05 06:14:51;;;;;;;12.15;7.07;;;;;;;17.80;71.76;96472.16;5114174;28;20040;-63
2023/09/05 06:17:20;;;;;;;10.38;6.72;;;;;;;17.85;71.49;96480.63;5114100;28;20045;-65
2023/09/05 06:19:47;;;;;;;7.63;6.68;;;;;;;17.84;71.88;96480.72;5114154;28;20079;-67
2023/09/05 06:22:14;;;;;;;7.80;7.00;;;;;;;17.81;71.91;96485.28;5114078;28;20394;-67
2023/09/05 06:24:41;;;;;;;10.45;6.85;;;;;;;17.79;71.72;96483.72;5114149;28;20143;-65
2023/09/05 06:27:08;;;;;;;10.18;6.70;;;;;;;17.74;72.14;96491.09;5114135;28;20068;-66
2023/09/05 06:29:35;;;;;;;9.43;7.20;;;;;;;17.74;72.42;96493.75;5114044;28;20097;-68
2023/09/05 06:32:02;;;;;;;9.73;6.55;;;;;;;17.72;72.15;96500.94;5113981;28;20051;-65
2023/09/05 06:34:31;;;;;;;8.20;7.40;;;;;;;17.74;72.79;96499.03;5113628;28;20460;-66
2023/09/05 06:37:01;;;;;;;12.20;7.28;;;;;;;17.78;73.11;96513.75;5113918;28;20048;-69
2023/09/05 06:39:28;;;;;;;11.07;8.13;;;;;;;17.68;73.39;96500.31;5113846;28;20047;-68
2023/09/05 06:41:56;;;;;;;12.50;7.93;;;;;;;17.72;73.21;96504.44;5113814;28;20442;-67
2023/09/05 06:44:23;;;;;;;14.23;7.50;;;;;;;17.75;72.52;96525.38;5113825;28;20087;-69
2023/09/05 06:46:51;;;;;;;8.02;7.18;;;;;;;17.72;72.79;96530.03;5113690;28;20096;-63
2023/09/05 06:49:18;;;;;;;9.23;7.38;;;;;;;17.71;72.81;96531.84;5113679;28;20044;-66
2023/09/05 06:51:46;;;;;;;10.40;7.85;;;;;;;17.76;72.32;96542.13;5113750;28;20051;-70
2023/09/05 06:54:13;;;;;;;11.30;8.23;;;;;;;17.69;72.42;96539.03;5113608;28;20077;-68
2023/09/05 06:56:40;;;;;;;14.23;7.88;;;;;;;17.64;72.41;96551.72;5113697;28;20100;-65
2023/09/05 06:59:17;;;;;;;8.05;7.15;;;;;;;17.69;72.74;96546.97;5113807;28;20465;-66
2023/09/05 07:01:44;;;;;;;10.40;7.70;;;;;;;17.80;72.60;96557.69;5113599;28;20044;-69
2023/09/05 07:04:11;;;;;;;12.73;8.57;;;;;;;17.86;72.08;96555.56;5113500;28;20493;-69
2023/09/05 07:06:39;;;;;;;8.45;7.65;;;;;;;18.01;71.37;96543.09;5113503;28;20098;-69
2023/09/05 07:09:08;;;;;;;9.77;7.50;;;;;;;18.14;70.68;96551.91;5113412;28;20497;-69
2023/09/05 07:11:35;;;;;;;7.95;6.45;;;;;;;18.33;69.65;96550.63;5113638;28;20047;-65
2023/09/05 07:14:02;;;;;;;9.10;7.00;;;;;;;18.65;68.37;96544.88;5114612;28;20055;-68
2023/09/05 07:16:29;;;;;;;7.45;6.75;;;;;;;18.91;67.60;96555.41;5117609;28;20497;-67
2023/09/05 07:18:56;;;;;;;10.48;7.15;;;;;;;19.06;66.01;96557.94;5117772;28;20075;-71
2023/09/05 07:21:23;;;;;;;6.88;6.15;;;;;;;19.10;65.56;96555.91;5117601;28;20064;-67
2023/09/05 07:23:50;;;;;;;8.40;7.07;;;;;;;19.20;65.73;96554.28;5117624;28;20048;-67
2023/09/05 07:26:18;;;;;;;8.93;6.70;;;;;;;19.32;64.64;96555.19;5117564;28;20044;-68
2023/09/05 07:28:47;;;;;;;9.05;6.55;;;;;;;19.40;64.66;96552.84;5117720;28;20047;-68
2023/09/05 07:31:14;;;;;;;10.90;6.72;;;;;;;19.65;63.84;96550.16;5117546;28;20473;-66
2023/09/05 07:33:41;;;;;;;8.90;6.07;;;;;;;19.76;62.37;96542.25;5117471;28;20381;-74
2023/09/05 07:36:08;;;;;;;7.80;5.90;;;;;;;20.07;61.69;96541.75;5117709;28;20075;-66
2023/09/05 07:38:35;;;;;;;8.63;5.55;;;;;;;20.41;60.68;96528.50;5117331;28;20090;-64
2023/09/05 07:41:03;;;;;;;7.63;5.03;;;;;;;20.68;59.53;96523.78;5117306;28;20079;-68
2023/09/05 07:43:33;;;;;;;8.98;5.10;;;;;;;21.02;58.10;96538.88;5117113;28;20047;-68
2023/09/05 07:46:00;;;;;;;6.82;5.50;;;;;;;20.92;57.50;96525.50;5117263;28;20040;-65
2023/09/05 07:48:27;;;;;;;10.60;5.93;;;;;;;20.71;57.46;96529.69;5117157;28;20044;-70
2023/09/05 07:51:03;;;;;;;10.13;6.03;;;;;;;20.50;58.49;96539.38;5117160;28;20378;-67
2023/09/05 07:53:32;;;;;;;6.97;5.35;;;;;;;20.41;58.88;96538.28;5117132;28;20047;-65
2023/09/05 07:55:59;;;;;;;10.10;4.90;;;;;;;20.29;58.54;96510.88;5117147;28;20052;-68
2023/09/05 07:58:27;;;;;;;7.53;5.50;;;;;;;20.31;59.25;96517.75;5116941;28;20048;-67
2023/09/05 08:00:56;;;;;;;10.07;5.22;;;;;;;20.15;59.57;96527.88;5116867;28;20091;-65
2023/09/05 08:03:25;;;;;;;9.00;5.28;;;;;;;20.23;59.40;96529.94;5117056;27;20475;-69
2023/09/05 08:05:53;;;;;;;10.05;5.25;;;;;;;20.31;58.69;96528.38;5116927;28;20127;-62
2023/09/05 08:08:21;;;;;;;7.90;5.18;;;;;;;20.40;58.82;96537.44;5116739;28;20386;-69
2023/09/05 08:10:48;;;;;;;6.85;5.13;;;;;;;20.45;58.13;96543.25;5116779;27;20093;-67
2023/09/05 08:13:15;;;;;;;8.50;5.20;;;;;;;20.57;58.17;96541.44;5116615;28;20409;-70
2023/09/05 08:15:44;;;;;;;6.63;5.40;;;;;;;20.37;57.19;96542.97;5116682;28;20130;-68
2023/09/05 08:18:13;;;;;;;11.10;4.63;;;;;;;20.20;58.14;96552.28;5115947;28;20047;-69
2023/09/05 08:20:42;;;;;;;10.57;5.68;;;;;;;20.31;58.45;96552.28;5116548;28;20051;-70
2023/09/05 08:23:10;;;;;;;6.45;4.85;;;;;;;20.35;57.80;96562.66;5116313;28;20083;-66
2023/09/05 08:25:37;;;;;;;8.48;5.32;;;;;;;20.13;57.77;96559.00;5115653;28;20135;-66
2023/09/05 08:28:04;;;;;;;6.78;4.72;;;;;;;19.93;57.74;96564.84;5116515;28;20051;-66
2023/09/05 08:30:32;;;;;;;7.32;5.10;;;;;;;19.79;58.50;96560.59;5116243;28;20542;-67
2023/09/05 08:33:02;;;;;;;6.95;4.47;;;;;;;19.69;58.79;96570.22;5116155;28;20126;-64
2023/09/05 08:35:31;;;;;;;8.65;4.85;;;;;;;19.50;58.99;96560.94;5116346;28;20131;-68
2023/09/05 08:38:02;;;;;;;12.80;4.53;;;;;;;19.53;58.71;96578.44;5116266;28;21609;-64
2023/09/05 08:40:30;;;;;;;7.13;4.72;;;;;;;19.39;60.39;96568.88;5116088;28;20075;-63
2023/09/05 08:42:57;;;;;;;7.72;5.13;;;;;;;19.51;59.52;96578.56;5115901;28;20507;-65
2023/09/05 08:45:24;;;;;;;7.57;4.95;;;;;;;19.55;59.68;96574.75;5116003;28;20090;-65
2023/09/05 08:47:52;;;;;;;14.35;5.78;;;;;;;19.62;59.24;96568.97;5115924;28;20130;-66
2023/09/05 08:50:19;;;;;;;6.05;4.60;;;;;;;19.66;59.27;96579.22;5115939;28;20043;-71
2023/09/05 08:52:49;;;;;;;8.85;5.07;;;;;;;19.70;59.22;96582.50;5115940;28;20051;-66
2023/09/05 08:55:17;;;;;;;9.00;4.88;;;;;;;19.68;59.20;96581.75;5115908;28;20068;-69
2023/09/05 08:57:48;;;;;;;6.10;4.95;;;;;;;19.75;58.97;96579.50;5115883;28;20064;-68
2023/09/05 09:00:17;;;;;;;5.75;4.72;;;;;;;19.67;59.15;96588.91;5115626;27;20052;-68
2023/09/05 09:02:45;;;;;;;8.15;5.32;;;;;;;19.60;59.62;96610.69;5115583;28;20047;-67
2023/09/05 09:05:12;;;;;;;8.13;4.97;;;;;;;19.61;59.23;96602.63;5115613;28;20048;-68
2023/09/05 09:07:39;;;;;;;9.38;5.03;;;;;;;19.59;60.20;96609.00;5115512;27;20055;-72
2023/09/05 09:10:23;;;;;;;10.02;4.32;;;;;;;19.59;59.77;96624.91;5115575;28;20047;-68
2023/09/05 09:12:54;;;;;;;7.78;4.82;;;;;;;19.52;60.07;96633.31;5113115;28;20040;-65
2023/09/05 09:15:21;;;;;;;;;;;;;;;19.59;60.25;96639.00;5115750;28;20497;-68
2023/09/05 09:17:49;;;;;;;5.47;4.97;;;;;;;19.55;59.90;96649.00;5115370;28;19920;-69
2023/09/05 09:20:19;;;;;;;6.75;5.65;;;;;;;19.35;60.74;96646.97;5115124;28;20138;-66
2023/09/05 09:22:50;;;;;;;5.13;4.60;;;;;;;19.24;61.05;96639.78;5115421;28;20047;-65
2023/09/05 09:25:20;;;;;;;9.25;4.97;;;;;;;19.32;62.35;96645.34;5115318;28;20379;-63
2023/09/05 09:27:53;;;;;;;8.07;4.68;;;;;;;19.33;60.73;96652.38;5115230;28;20050;-63
2023/09/05 09:30:24;;;;;;;5.13;4.63;;;;;;;19.36;61.36;96648.66;5115135;28;20454;-64
2023/09/05 09:32:52;;;;;;;8.82;4.88;;;;;;;19.36;61.25;96657.47;5115118;27;20043;-68
2023/09/05 09:35:20;;;;;;;7.78;4.80;;;;;;;19.40;61.43;96661.56;5114971;28;20536;-66
2023/09/05 09:37:48;;;;;;;12.27;5.60;;;;;;;19.41;61.30;96665.91;5114016;28;20043;-66
2023/09/05 09:40:17;;;;;;;9.20;5.22;;;;;;;19.36;61.36;96668.06;5114868;28;20039;-65
2023/09/05 09:42:47;;;;;;;9.57;5.65;;;;;;;19.39;61.20;96665.16;5115053;28;20040;-65
2023/09/05 09:45:17;;;;;;;6.68;5.72;;;;;;;19.41;60.99;96657.97;5114925;28;20131;-65
2023/09/05 09:47:48;;;;;;;10.20;4.88;;;;;;;19.47;61.79;96679.72;5114811;28;20051;-68
2023/09/05 09:50:17;;;;;;;5.85;5.00;;;;;;;19.51;61.51;96667.91;5114897;28;20048;-72
2023/09/05 09:52:46;;;;;;;19.60;5.50;;;;;;;19.49;60.44;96667.16;5114796;28;20080;-64
2023/09/05 09:55:15;;;;;;;5.82;4.88;;;;;;;19.63;60.65;96664.34;5114821;28;20075;-65
2023/09/05 09:57:47;;;;;;;8.80;5.38;;;;;;;19.78;60.69;96672.16;5114683;28;20075;-63
2023/09/05 10:00:18;;;;;;;7.38;5.03;;;;;;;19.75;59.71;96664.41;5114623;28;20055;-67
2023/09/05 10:02:47;;;;;;;10.00;4.72;;;;;;;19.77;59.86;96671.31;5114492;28;20048;-67
2023/09/05 10:05:16;;;;;;;6.72;4.80;;;;;;;19.90;60.44;96673.88;5114426;28;20047;-68
2023/09/05 10:07:44;;;;;;;9.90;4.95;;;;;;;19.90;59.82;96679.19;5114278;28;20051;-66
2023/09/05 10:10:15;;;;;;;8.75;5.15;;;;;;;19.91;60.08;96672.09;5114319;28;20439;-69
2023/09/05 10:12:45;;;;;;;7.55;4.93;;;;;;;19.99;59.82;96676.84;5114224;28;20096;-67
2023/09/05 10:15:12;;;;;;;11.95;5.10;;;;;;;19.98;59.06;96677.81;5114295;28;20143;-65
2023/09/05 10:17:42;;;;;;;8.95;4.55;;;;;;;20.12;59.82;96677.66;5114103;28;20052;-69
2023/09/05 10:20:14;;;;;;;7.90;4.70;;;;;;;20.17;59.50;96679.97;5114231;28;20052;-65
2023/09/05 10:22:43;;;;;;;6.53;4.28;;;;;;;20.35;58.83;96659.13;5114114;28;20043;-63
2023/09/05 10:25:12;;;;;;;8.27;4.88;;;;;;;20.33;58.44;96690.28;5113958;28;20048;-65
2023/09/05 10:27:40;;;;;;;6.03;4.13;;;;;;;20.35;58.24;96684.84;5113937;28;20052;-67
2023/09/05 10:30:10;;;;;;;7.95;5.50;;;;;;;20.52;58.42;96692.38;5114017;28;20071;-68
2023/09/05 10:32:41;;;;;;;9.30;4.72;;;;;;;20.53;57.72;96683.44;5113913;28;20122;-68
2023/09/05 10:35:10;;;;;;;6.32;4.50;;;;;;;20.73;56.60;96691.69;5113906;28;20052;-69
2023/09/05 10:37:45;;;;;;;10.93;4.50;;;;;;;20.68;57.00;96694.69;5113760;28;20428;-67
2023/09/05 10:40:13;;;;;;;9.35;4.93;;;;;;;20.80;57.35;96692.06;5113827;28;20473;-68
2023/09/05 10:42:45;;;;;;;5.78;4.28;;;;;;;21.01;57.54;96692.22;5113787;28;20052;-69
2023/09/05 10:45:29;;;;;;;7.70;4.43;;;;;;;21.03;55.48;96687.63;5113748;28;20059;-68
2023/09/05 10:48:01;;;;;;;9.60;4.70;;;;;;;21.12;56.42;96702.03;5113778;27;20116;-65
2023/09/05 10:50:30;;;;;;;8.63;5.13;;;;;;;20.90;55.83;96682.44;5113381;28;20187;-65
2023/09/05 10:53:23;;;;;;;12.82;5.25;;;;;;;21.00;56.17;96682.56;5113538;28;20039;-65
2023/09/05 10:55:52;;;;;;;5.65;4.53;;;;;;;21.10;56.93;96698.63;5113732;28;20382;-66
2023/09/05 10:58:39;;;;;;;5.00;4.05;;;;;;;20.91;56.01;96692.09;5113469;28;20043;-68
2023/09/05 11:01:56;;;;;;;10.35;4.90;;;;;;;20.71;57.44;96698.94;5113709;28;20087;-68
2023/09/05 11:04:27;;;;;;;10.23;4.95;;;;;;;20.63;57.26;96699.53;5050964;28;20049;-67
2023/09/05 11:06:58;;;;;;;6.20;4.43;;;;;;;20.67;57.06;96694.81;5050822;28;20450;-65
2023/09/05 11:09:25;;;;;;;6.38;4.65;;;;;;;20.61;57.13;96692.63;5083126;28;20047;-68
2023/09/05 11:11:55;;;;;;;5.97;4.43;;;;;;;20.57;57.50;96692.03;5113879;28;20052;-66
2023/09/05 11:14:33;;;;;;;5.15;4.45;;;;;;;20.57;57.14;96689.38;5113607;28;20454;-70
2023/09/05 11:17:01;;;;;;;9.43;4.65;;;;;;;20.58;57.92;96686.59;5113412;28;20048;-65
2023/09/05 11:19:32;;;;;;;8.55;4.75;;;;;;;20.54;58.27;96681.63;5113406;28;20086;-68
2023/09/05 11:22:15;;;;;;;12.40;5.38;;;;;;;20.58;57.54;96678.63;5113410;28;20108;-66
2023/09/05 11:24:50;;;;;;;10.43;4.32;;;;;;;20.60;56.91;96678.50;5113336;28;20102;-67
2023/09/05 11:27:21;;;;;;;8.50;4.40;;;;;;;20.57;56.98;96676.94;5113320;28;20404;-63
2023/09/05 11:29:49;;;;;;;9.45;4.45;;;;;;;20.58;57.02;96680.41;5113434;28;20104;-65
2023/09/05 11:32:17;;;;;;;6.78;4.55;;;;;;;20.51;57.38;96688.03;5113288;28;20052;-64
2023/09/05 11:34:45;;;;;;;6.53;5.05;;;;;;;20.51;57.87;96685.38;5113316;28;20092;-67
2023/09/05 11:37:20;;;;;;;6.60;4.22;;;;;;;20.42;57.59;96686.06;5113203;28;20051;-68
2023/09/05 11:39:48;;;;;;;7.00;4.70;;;;;;;20.38;58.16;96689.94;5113320;28;20473;-66